sensor_id;sensor_type;location;lat;lon;timestamp;pressure;altitude;pressure_sealevel;temperature
20490;BMP280;10403;54.092;12.122;2023-10-13T00:01:49;101473.09;;;12.28
20490;BMP280;10403;54.092;12.122;2023-10-13T00:04:20;101461.72;;;12.26
20490;BMP280;10403;54.092;12.122;2023-10-13T00:06:52;101480.84;;;12.40
20490;BMP280;10403;54.092;12.122;2023-10-13T00:09:20;101479.97;;;12.41
20490;BMP280;10403;54.092;12.122;2023-10-13T00:11:52;101477.28;;;12.44
20490;BMP280;10403;54.092;12.122;2023-10-13T00:14:20;101482.53;;;12.44
20490;BMP280;10403;54.092;12.122;2023-10-13T00:16:48;101462.50;;;12.38
20490;BMP280;10403;54.092;12.122;2023-10-13T00:19:38;101483.41;;;12.44
20490;BMP280;10403;54.092;12.122;2023-10-13T00:22:13;101471.22;;;12.40
20490;BMP280;10403;54.092;12.122;2023-10-13T00:24:44;101472.13;;;12.38
20490;BMP280;10403;54.092;12.122;2023-10-13T00:27:20;101484.34;;;12.39
20490;BMP280;10403;54.092;12.122;2023-10-13T00:30:06;101466.09;;;12.28
20490;BMP280;10403;54.092;12.122;2023-10-13T00:32:47;101491.34;;;12.40
20490;BMP280;10403;54.092;12.122;2023-10-13T00:35:23;101482.59;;;12.41
20490;BMP280;10403;54.092;12.122;2023-10-13T00:38:04;101474.72;;;12.41
20490;BMP280;10403;54.092;12.122;2023-10-13T00:40:44;101470.28;;;12.44
20490;BMP280;10403;54.092;12.122;2023-10-13T00:43:20;101466.78;;;12.47
20490;BMP280;10403;54.092;12.122;2023-10-13T00:45:55;101467.63;;;12.49
20490;BMP280;10403;54.092;12.122;2023-10-13T00:48:25;101465.00;;;12.52
20490;BMP280;10403;54.092;12.122;2023-10-13T00:51:12;101449.22;;;12.53
20490;BMP280;10403;54.092;12.122;2023-10-13T00:54:00;101428.28;;;12.46
20490;BMP280;10403;54.092;12.122;2023-10-13T00:56:29;101437.88;;;12.53
20490;BMP280;10403;54.092;12.122;2023-10-13T00:58:57;101430.88;;;12.50
20490;BMP280;10403;54.092;12.122;2023-10-13T01:01:29;101451.78;;;12.59
20490;BMP280;10403;54.092;12.122;2023-10-13T01:04:02;101446.50;;;12.63
20490;BMP280;10403;54.092;12.122;2023-10-13T01:06:32;101445.66;;;12.59
20490;BMP280;10403;54.092;12.122;2023-10-13T01:09:10;101438.66;;;12.58
20490;BMP280;10403;54.092;12.122;2023-10-13T01:11:43;101440.31;;;12.68
20490;BMP280;10403;54.092;12.122;2023-10-13T01:14:15;101433.38;;;12.61
20490;BMP280;10403;54.092;12.122;2023-10-13T01:16:48;101444.66;;;12.71
20490;BMP280;10403;54.092;12.122;2023-10-13T01:19:20;101449.06;;;12.67
20490;BMP280;10403;54.092;12.122;2023-10-13T01:21:52;101436.88;;;12.63
20490;BMP280;10403;54.092;12.122;2023-10-13T01:24:33;101456.91;;;12.70
20490;BMP280;10403;54.092;12.122;2023-10-13T01:27:05;101450.78;;;12.71
20490;BMP280;10403;54.092;12.122;2023-10-13T01:29:47;101454.22;;;12.73
20490;BMP280;10403;54.092;12.122;2023-10-13T01:32:32;101450.72;;;12.74
20490;BMP280;10403;54.092;12.122;2023-10-13T01:35:00;101448.94;;;12.76
20490;BMP280;10403;54.092;12.122;2023-10-13T01:37:33;101420.16;;;12.69
20490;BMP280;10403;54.092;12.122;2023-10-13T01:40:00;101416.66;;;12.68
20490;BMP280;10403;54.092;12.122;2023-10-13T01:42:27;101426.19;;;12.78
20490;BMP280;10403;54.092;12.122;2023-10-13T01:44:57;101432.28;;;12.79
20490;BMP280;10403;54.092;12.122;2023-10-13T01:47:33;101421.81;;;12.77
20490;BMP280;10403;54.092;12.122;2023-10-13T01:50:00;101404.31;;;12.75
20490;BMP280;10403;54.092;12.122;2023-10-13T01:52:42;101409.59;;;12.75
20490;BMP280;10403;54.092;12.122;2023-10-13T01:55:09;101394.69;;;12.75
20490;BMP280;10403;54.092;12.122;2023-10-13T01:57:38;101395.56;;;12.77
20490;BMP280;10403;54.092;12.122;2023-10-13T02:00:09;101377.19;;;12.74
20490;BMP280;10403;54.092;12.122;2023-10-13T02:02:46;101374.56;;;12.74
20490;BMP280;10403;54.092;12.122;2023-10-13T02:05:17;101384.13;;;12.83
20490;BMP280;10403;54.092;12.122;2023-10-13T02:07:44;101391.94;;;12.84
20490;BMP280;10403;54.092;12.122;2023-10-13T02:10:14;101394.56;;;12.87
20490;BMP280;10403;54.092;12.122;2023-10-13T02:12:41;101392.78;;;12.89
20490;BMP280;10403;54.092;12.122;2023-10-13T02:15:13;101377.91;;;12.88
20490;BMP280;10403;54.092;12.122;2023-10-13T02:17:53;101378.69;;;12.93
20490;BMP280;10403;54.092;12.122;2023-10-13T02:20:22;101378.69;;;12.93
20490;BMP280;10403;54.092;12.122;2023-10-13T02:22:58;101356.03;;;12.88
20490;BMP280;10403;54.092;12.122;2023-10-13T02:25:25;101355.03;;;12.96
20490;BMP280;10403;54.092;12.122;2023-10-13T02:28:13;101350.66;;;12.95
20490;BMP280;10403;54.092;12.122;2023-10-13T02:30:43;101332.41;;;12.88
20490;BMP280;10403;54.092;12.122;2023-10-13T02:33:16;101346.28;;;12.96
20490;BMP280;10403;54.092;12.122;2023-10-13T02:35:58;101341.00;;;12.99
20490;BMP280;10403;54.092;12.122;2023-10-13T02:38:25;101335.75;;;12.99
20490;BMP280;10403;54.092;12.122;2023-10-13T02:41:17;101332.25;;;12.98
20490;BMP280;10403;54.092;12.122;2023-10-13T02:43:55;101326.09;;;13.00
20490;BMP280;10403;54.092;12.122;2023-10-13T02:46:24;101321.69;;;13.02
20490;BMP280;10403;54.092;12.122;2023-10-13T02:48:57;101319.03;;;13.03
20490;BMP280;10403;54.092;12.122;2023-10-13T02:51:28;101307.66;;;13.03
20490;BMP280;10403;54.092;12.122;2023-10-13T02:54:06;101303.22;;;13.08
20490;BMP280;10403;54.092;12.122;2023-10-13T02:56:40;101290.06;;;13.09
20490;BMP280;10403;54.092;12.122;2023-10-13T02:59:27;101286.53;;;13.10
20490;BMP280;10403;54.092;12.122;2023-10-13T03:02:08;101280.41;;;13.10
20490;BMP280;10403;54.092;12.122;2023-10-13T03:04:57;101283.09;;;13.07
20490;BMP280;10403;54.092;12.122;2023-10-13T03:07:27;101282.97;;;13.13
20490;BMP280;10403;54.092;12.122;2023-10-13T03:09:58;101273.38;;;13.12
20490;BMP280;10403;54.092;12.122;2023-10-13T03:12:28;101270.72;;;13.15
20490;BMP280;10403;54.092;12.122;2023-10-13T03:15:03;101254.13;;;13.11
20490;BMP280;10403;54.092;12.122;2023-10-13T03:18:01;101264.56;;;13.17
20490;BMP280;10403;54.092;12.122;2023-10-13T03:20:29;101251.44;;;13.17
20490;BMP280;10403;54.092;12.122;2023-10-13T03:22:59;101238.34;;;13.14
20490;BMP280;10403;54.092;12.122;2023-10-13T03:25:30;101247.03;;;13.19
20490;BMP280;10403;54.092;12.122;2023-10-13T03:28:04;101245.25;;;13.21
20490;BMP280;10403;54.092;12.122;2023-10-13T03:30:32;101237.25;;;13.27
20490;BMP280;10403;54.092;12.122;2023-10-13T03:33:07;101215.41;;;13.22
20490;BMP280;10403;54.092;12.122;2023-10-13T03:35:37;101225.81;;;13.30
20490;BMP280;10403;54.092;12.122;2023-10-13T03:38:05;101203.22;;;13.20
20490;BMP280;10403;54.092;12.122;2023-10-13T03:40:45;101217.03;;;13.31
20490;BMP280;10403;54.092;12.122;2023-10-13T03:43:15;101201.31;;;13.29
20490;BMP280;10403;54.092;12.122;2023-10-13T03:45:51;101209.09;;;13.34
20490;BMP280;10403;54.092;12.122;2023-10-13T03:48:35;101199.41;;;13.36
20490;BMP280;10403;54.092;12.122;2023-10-13T03:51:19;101189.78;;;13.37
20490;BMP280;10403;54.092;12.122;2023-10-13T03:53:46;101171.44;;;13.32
20490;BMP280;10403;54.092;12.122;2023-10-13T03:56:24;101182.72;;;13.40
20490;BMP280;10403;54.092;12.122;2023-10-13T03:59:00;101178.28;;;13.42
20490;BMP280;10403;54.092;12.122;2023-10-13T04:01:33;101171.22;;;13.44
20490;BMP280;10403;54.092;12.122;2023-10-13T04:04:19;101155.53;;;13.41
20490;BMP280;10403;54.092;12.122;2023-10-13T04:07:06;101161.53;;;13.48
20490;BMP280;10403;54.092;12.122;2023-10-13T04:09:37;101160.63;;;13.50
20490;BMP280;10403;54.092;12.122;2023-10-13T04:12:07;101155.38;;;13.50
20490;BMP280;10403;54.092;12.122;2023-10-13T04:14:42;101153.53;;;13.52
20490;BMP280;10403;54.092;12.122;2023-10-13T04:17:25;101134.34;;;13.50
20490;BMP280;10403;54.092;12.122;2023-10-13T04:19:58;101114.25;;;13.46
20490;BMP280;10403;54.092;12.122;2023-10-13T04:22:41;101135.88;;;13.60
20490;BMP280;10403;54.092;12.122;2023-10-13T04:25:22;101139.31;;;13.62
20490;BMP280;10403;54.092;12.122;2023-10-13T04:30:50;100983.19;;;12.86
20490;BMP280;10403;54.092;12.122;2023-10-13T04:33:30;101113.84;;;13.66
20490;BMP280;10403;54.092;12.122;2023-10-13T04:36:32;101119.84;;;13.71
20490;BMP280;10403;54.092;12.122;2023-10-13T04:39:00;101114.50;;;13.77
20490;BMP280;10403;54.092;12.122;2023-10-13T04:41:29;101103.94;;;13.79
20490;BMP280;10403;54.092;12.122;2023-10-13T04:44:15;101091.53;;;13.84
20490;BMP280;10403;54.092;12.122;2023-10-13T04:47:11;101085.38;;;13.86
20490;BMP280;10403;54.092;12.122;2023-10-13T04:49:45;101065.25;;;13.84
20490;BMP280;10403;54.092;12.122;2023-10-13T04:52:13;101074.72;;;13.91
20490;BMP280;10403;54.092;12.122;2023-10-13T04:54:54;101053.88;;;13.83
20490;BMP280;10403;54.092;12.122;2023-10-13T04:57:23;101072.03;;;13.94
20490;BMP280;10403;54.092;12.122;2023-10-13T05:00:04;101067.69;;;13.91
20490;BMP280;10403;54.092;12.122;2023-10-13T05:02:45;101065.81;;;13.98
20490;BMP280;10403;54.092;12.122;2023-10-13T05:05:28;101060.53;;;13.99
20490;BMP280;10403;54.092;12.122;2023-10-13T05:08:14;101063.97;;;14.01
20490;BMP280;10403;54.092;12.122;2023-10-13T05:11:05;101051.66;;;14.02
20490;BMP280;10403;54.092;12.122;2023-10-13T05:13:50;101039.34;;;14.04
20490;BMP280;10403;54.092;12.122;2023-10-13T05:16:36;101019.38;;;13.97
20490;BMP280;10403;54.092;12.122;2023-10-13T05:19:21;101024.41;;;14.06
20490;BMP280;10403;54.092;12.122;2023-10-13T05:22:07;101025.22;;;14.10
20490;BMP280;10403;54.092;12.122;2023-10-13T05:24:53;101024.28;;;14.11
20490;BMP280;10403;54.092;12.122;2023-10-13T05:27:38;100997.28;;;14.04
20490;BMP280;10403;54.092;12.122;2023-10-13T05:30:24;101000.66;;;14.09
20490;BMP280;10403;54.092;12.122;2023-10-13T05:33:10;101001.41;;;14.14
20490;BMP280;10403;54.092;12.122;2023-10-13T05:35:55;100956.38;;;13.91
20490;BMP280;10403;54.092;12.122;2023-10-13T05:38:41;100983.91;;;14.12
20490;BMP280;10403;54.092;12.122;2023-10-13T05:41:26;100989.06;;;14.18
20490;BMP280;10403;54.092;12.122;2023-10-13T05:44:12;100988.09;;;14.20
20490;BMP280;10403;54.092;12.122;2023-10-13T05:46:57;100979.38;;;14.18
20490;BMP280;10403;54.092;12.122;2023-10-13T05:49:43;100966.25;;;14.18
20490;BMP280;10403;54.092;12.122;2023-10-13T05:52:31;100983.59;;;14.25
20490;BMP280;10403;54.092;12.122;2023-10-13T05:55:17;100973.06;;;14.25
20490;BMP280;10403;54.092;12.122;2023-10-13T05:58:03;100971.31;;;14.24
20490;BMP280;10403;54.092;12.122;2023-10-13T06:00:49;100981.66;;;14.32
20490;BMP280;10403;54.092;12.122;2023-10-13T06:03:34;100964.25;;;14.26
20490;BMP280;10403;54.092;12.122;2023-10-13T06:06:20;100976.28;;;14.36
20490;BMP280;10403;54.092;12.122;2023-10-13T06:09:05;100974.47;;;14.38
20490;BMP280;10403;54.092;12.122;2023-10-13T06:11:51;100971.00;;;14.39
20490;BMP280;10403;54.092;12.122;2023-10-13T06:14:37;100961.22;;;14.43
20490;BMP280;10403;54.092;12.122;2023-10-13T06:17:23;100952.66;;;14.33
20490;BMP280;10403;54.092;12.122;2023-10-13T06:20:09;100958.63;;;14.41
20490;BMP280;10403;54.092;12.122;2023-10-13T06:22:56;100936.69;;;14.41
20490;BMP280;10403;54.092;12.122;2023-10-13T06:25:41;100944.59;;;14.41
20490;BMP280;10403;54.092;12.122;2023-10-13T06:28:27;100964.44;;;14.54
20490;BMP280;10403;54.092;12.122;2023-10-13T06:31:11;100958.28;;;14.55
20490;BMP280;10403;54.092;12.122;2023-10-13T06:33:49;100949.56;;;14.52
20490;BMP280;10403;54.092;12.122;2023-10-13T06:36:16;100927.09;;;14.38
20490;BMP280;10403;54.092;12.122;2023-10-13T06:38:45;100951.09;;;14.60
20490;BMP280;10403;54.092;12.122;2023-10-13T06:41:19;100955.41;;;14.63
20490;BMP280;10403;54.092;12.122;2023-10-13T06:43:57;100947.56;;;14.61
20490;BMP280;10403;54.092;12.122;2023-10-13T06:46:28;100938.81;;;14.59
20490;BMP280;10403;54.092;12.122;2023-10-13T06:48:56;100950.91;;;14.68
20490;BMP280;10403;54.092;12.122;2023-10-13T06:51:27;100944.81;;;14.66
20490;BMP280;10403;54.092;12.122;2023-10-13T06:53:58;100930.84;;;14.62
20490;BMP280;10403;54.092;12.122;2023-10-13T06:56:31;100950.72;;;14.74
20490;BMP280;10403;54.092;12.122;2023-10-13T06:58:59;100953.31;;;14.75
20490;BMP280;10403;54.092;12.122;2023-10-13T07:01:27;100950.66;;;14.77
20490;BMP280;10403;54.092;12.122;2023-10-13T07:03:54;100940.91;;;14.79
20490;BMP280;10403;54.092;12.122;2023-10-13T07:06:28;100935.75;;;14.76
20490;BMP280;10403;54.092;12.122;2023-10-13T07:08:58;100938.19;;;14.82
20490;BMP280;10403;54.092;12.122;2023-10-13T07:11:31;100945.94;;;14.88
20490;BMP280;10403;54.092;12.122;2023-10-13T07:14:04;100922.25;;;14.88
20490;BMP280;10403;54.092;12.122;2023-10-13T07:16:59;100920.41;;;14.90
20490;BMP280;10403;54.092;12.122;2023-10-13T07:19:29;100924.66;;;14.96
20490;BMP280;10403;54.092;12.122;2023-10-13T07:21:58;100927.16;;;14.99
20490;BMP280;10403;54.092;12.122;2023-10-13T07:24:26;100918.31;;;15.01
20490;BMP280;10403;54.092;12.122;2023-10-13T07:27:03;100930.50;;;15.05
20490;BMP280;10403;54.092;12.122;2023-10-13T07:29:33;100899.84;;;15.03
20490;BMP280;10403;54.092;12.122;2023-10-13T07:32:04;100900.63;;;15.06
20490;BMP280;10403;54.092;12.122;2023-10-13T07:34:32;100901.47;;;15.07
20490;BMP280;10403;54.092;12.122;2023-10-13T07:37:00;100908.19;;;15.17
20490;BMP280;10403;54.092;12.122;2023-10-13T07:39:31;100895.97;;;15.14
20490;BMP280;10403;54.092;12.122;2023-10-13T07:42:02;100900.19;;;15.20
20490;BMP280;10403;54.092;12.122;2023-10-13T07:44:43;100883.50;;;15.19
20490;BMP280;10403;54.092;12.122;2023-10-13T07:47:14;100892.97;;;15.27
20490;BMP280;10403;54.092;12.122;2023-10-13T07:49:42;100892.00;;;15.29
20490;BMP280;10403;54.092;12.122;2023-10-13T07:52:11;100887.41;;;15.36
20490;BMP280;10403;54.092;12.122;2023-10-13T07:54:55;100869.94;;;15.32
20490;BMP280;10403;54.092;12.122;2023-10-13T07:57:47;100852.31;;;15.34
20490;BMP280;10403;54.092;12.122;2023-10-13T08:00:23;100872.25;;;15.42
20490;BMP280;10403;54.092;12.122;2023-10-13T08:03:14;100854.78;;;15.38
20490;BMP280;10403;54.092;12.122;2023-10-13T08:05:52;100863.25;;;15.48
20490;BMP280;10403;54.092;12.122;2023-10-13T08:08:26;100850.91;;;15.50
20490;BMP280;10403;54.092;12.122;2023-10-13T08:11:14;100839.53;;;15.48
20490;BMP280;10403;54.092;12.122;2023-10-13T08:13:57;100834.06;;;15.56
20490;BMP280;10403;54.092;12.122;2023-10-13T08:16:44;100824.38;;;15.56
20490;BMP280;10403;54.092;12.122;2023-10-13T08:19:28;100831.16;;;15.63
20490;BMP280;10403;54.092;12.122;2023-10-13T08:22:08;100808.56;;;15.56
20490;BMP280;10403;54.092;12.122;2023-10-13T08:24:46;100776.47;;;15.42
20490;BMP280;10403;54.092;12.122;2023-10-13T08:27:15;100814.06;;;15.75
20490;BMP280;10403;54.092;12.122;2023-10-13T08:30:02;100807.75;;;15.79
20490;BMP280;10403;54.092;12.122;2023-10-13T08:32:30;100808.53;;;15.82
20490;BMP280;10403;54.092;12.122;2023-10-13T08:35:00;100773.66;;;15.74
20490;BMP280;10403;54.092;12.122;2023-10-13T08:37:32;100786.38;;;15.86
20490;BMP280;10403;54.092;12.122;2023-10-13T08:40:05;100768.88;;;15.85
20490;BMP280;10403;54.092;12.122;2023-10-13T08:42:53;100776.53;;;15.91
20490;BMP280;10403;54.092;12.122;2023-10-13T08:45:31;100762.44;;;15.93
20490;BMP280;10403;54.092;12.122;2023-10-13T08:48:01;100748.44;;;15.90
20490;BMP280;10403;54.092;12.122;2023-10-13T08:53:29;100752.56;;;15.98
20490;BMP280;10403;54.092;12.122;2023-10-13T08:56:09;100747.25;;;15.99
20490;BMP280;10403;54.092;12.122;2023-10-13T08:58:49;100732.19;;;16.03
20490;BMP280;10403;54.092;12.122;2023-10-13T09:01:29;100742.63;;;16.06
20490;BMP280;10403;54.092;12.122;2023-10-13T09:04:18;100735.50;;;16.08
20490;BMP280;10403;54.092;12.122;2023-10-13T09:09:27;100732.69;;;16.12
20490;BMP280;10403;54.092;12.122;2023-10-13T09:12:10;100722.03;;;16.15
20490;BMP280;10403;54.092;12.122;2023-10-13T09:14:41;100721.94;;;16.17
20490;BMP280;10403;54.092;12.122;2023-10-13T09:17:13;100721.91;;;16.18
20490;BMP280;10403;54.092;12.122;2023-10-13T09:22:26;100696.41;;;16.17
20490;BMP280;10403;54.092;12.122;2023-10-13T09:24:59;100680.59;;;16.17
20490;BMP280;10403;54.092;12.122;2023-10-13T09:27:32;100685.59;;;16.25
20490;BMP280;10403;54.092;12.122;2023-10-13T09:30:03;100695.19;;;16.26
20490;BMP280;10403;54.092;12.122;2023-10-13T09:32:38;100702.09;;;16.30
20490;BMP280;10403;54.092;12.122;2023-10-13T09:35:20;100679.56;;;16.21
20490;BMP280;10403;54.092;12.122;2023-10-13T09:37:54;100672.50;;;16.22
20490;BMP280;10403;54.092;12.122;2023-10-13T09:40:23;100681.91;;;16.29
20490;BMP280;10403;54.092;12.122;2023-10-13T09:43:01;100678.94;;;16.37
20490;BMP280;10403;54.092;12.122;2023-10-13T09:45:34;100670.94;;;16.40
20490;BMP280;10403;54.092;12.122;2023-10-13T09:48:10;100677.00;;;16.42
20490;BMP280;10403;54.092;12.122;2023-10-13T09:50:47;100654.22;;;16.39
20490;BMP280;10403;54.092;12.122;2023-10-13T09:53:17;100653.06;;;16.46
20490;BMP280;10403;54.092;12.122;2023-10-13T09:55:49;100650.25;;;16.51
20490;BMP280;10403;54.092;12.122;2023-10-13T09:58:19;100649.28;;;16.53
20490;BMP280;10403;54.092;12.122;2023-10-13T10:00:59;100638.56;;;16.56
20490;BMP280;10403;54.092;12.122;2023-10-13T10:03:45;100596.88;;;16.43
20490;BMP280;10403;54.092;12.122;2023-10-13T10:06:23;100627.81;;;16.61
20490;BMP280;10403;54.092;12.122;2023-10-13T10:09:09;100618.16;;;16.61
20490;BMP280;10403;54.092;12.122;2023-10-13T10:15:11;100607.38;;;16.66
20490;BMP280;10403;54.092;12.122;2023-10-13T10:17:47;100604.69;;;16.68
20490;BMP280;10403;54.092;12.122;2023-10-13T10:20:29;100595.84;;;16.69
20490;BMP280;10403;54.092;12.122;2023-10-13T10:23:28;100588.59;;;16.74
20490;BMP280;10403;54.092;12.122;2023-10-13T10:26:11;100590.22;;;16.76
20490;BMP280;10403;54.092;12.122;2023-10-13T10:28:43;100581.44;;;16.76
20490;BMP280;10403;54.092;12.122;2023-10-13T10:31:12;100572.47;;;16.80
20490;BMP280;10403;54.092;12.122;2023-10-13T10:33:45;100570.63;;;16.82
20490;BMP280;10403;54.092;12.122;2023-10-13T10:36:29;100558.34;;;16.81
20490;BMP280;10403;54.092;12.122;2023-10-13T10:38:58;100560.06;;;16.82
20490;BMP280;10403;54.092;12.122;2023-10-13T10:41:32;100579.22;;;16.87
20490;BMP280;10403;54.092;12.122;2023-10-13T10:44:15;100577.50;;;16.86
20490;BMP280;10403;54.092;12.122;2023-10-13T10:47:15;100577.50;;;16.86
20490;BMP280;10403;54.092;12.122;2023-10-13T10:50:03;100557.28;;;16.85
20490;BMP280;10403;54.092;12.122;2023-10-13T10:52:47;100545.53;;;16.92
20490;BMP280;10403;54.092;12.122;2023-10-13T10:55:20;100528.59;;;16.96
20490;BMP280;10403;54.092;12.122;2023-10-13T10:57:59;100530.22;;;17.00
20490;BMP280;10403;54.092;12.122;2023-10-13T11:00:26;100512.63;;;16.99
20490;BMP280;10403;54.092;12.122;2023-10-13T11:03:05;100513.03;;;17.10
20490;BMP280;10403;54.092;12.122;2023-10-13T11:05:46;100510.25;;;17.13
20490;BMP280;10403;54.092;12.122;2023-10-13T11:08:25;100501.22;;;17.17
20490;BMP280;10403;54.092;12.122;2023-10-13T11:10:59;100510.88;;;17.18
20490;BMP280;10403;54.092;12.122;2023-10-13T11:13:43;100498.59;;;17.17
20490;BMP280;10403;54.092;12.122;2023-10-13T11:16:22;100492.19;;;17.23
20490;BMP280;10403;54.092;12.122;2023-10-13T11:19:04;100491.09;;;17.27
20490;BMP280;10403;54.092;12.122;2023-10-13T11:21:34;100483.91;;;17.30
20490;BMP280;10403;54.092;12.122;2023-10-13T11:24:05;100478.44;;;17.33
20490;BMP280;10403;54.092;12.122;2023-10-13T11:26:39;100475.47;;;17.41
20490;BMP280;10403;54.092;12.122;2023-10-13T11:29:30;100459.44;;;17.44
20490;BMP280;10403;54.092;12.122;2023-10-13T11:31:58;100446.31;;;17.43
20490;BMP280;10403;54.092;12.122;2023-10-13T11:34:27;100446.16;;;17.46
20490;BMP280;10403;54.092;12.122;2023-10-13T11:37:07;100427.63;;;17.46
20490;BMP280;10403;54.092;12.122;2023-10-13T11:39:52;100433.84;;;17.45
20490;BMP280;10403;54.092;12.122;2023-10-13T11:42:19;100429.66;;;17.41
20490;BMP280;10403;54.092;12.122;2023-10-13T11:44:47;100425.22;;;17.41
20490;BMP280;10403;54.092;12.122;2023-10-13T11:47:28;100425.94;;;17.45
20490;BMP280;10403;54.092;12.122;2023-10-13T11:50:14;100414.41;;;17.46
20490;BMP280;10403;54.092;12.122;2023-10-13T11:52:53;100415.28;;;17.46
20490;BMP280;10403;54.092;12.122;2023-10-13T11:55:20;100407.28;;;17.48
20490;BMP280;10403;54.092;12.122;2023-10-13T11:57:48;100410.72;;;17.50
20490;BMP280;10403;54.092;12.122;2023-10-13T12:00:16;100400.00;;;17.53
20490;BMP280;10403;54.092;12.122;2023-10-13T12:02:53;100403.31;;;17.56
20490;BMP280;10403;54.092;12.122;2023-10-13T12:05:39;100383.03;;;17.57
20490;BMP280;10403;54.092;12.122;2023-10-13T12:08:26;100379.19;;;17.64
20490;BMP280;10403;54.092;12.122;2023-10-13T12:11:00;100368.44;;;17.67
20490;BMP280;10403;54.092;12.122;2023-10-13T12:13:47;100365.50;;;17.73
20490;BMP280;10403;54.092;12.122;2023-10-13T12:16:14;100358.19;;;17.78
20490;BMP280;10403;54.092;12.122;2023-10-13T12:18:46;100340.47;;;17.80
20490;BMP280;10403;54.092;12.122;2023-10-13T12:21:20;100326.13;;;17.84
20490;BMP280;10403;54.092;12.122;2023-10-13T12:23:48;100329.50;;;17.88
20490;BMP280;10403;54.092;12.122;2023-10-13T12:26:18;100327.38;;;17.94
20490;BMP280;10403;54.092;12.122;2023-10-13T12:28:59;100308.56;;;18.00
20490;BMP280;10403;54.092;12.122;2023-10-13T12:31:33;100309.16;;;18.05
20490;BMP280;10403;54.092;12.122;2023-10-13T12:34:06;100288.91;;;18.04
20490;BMP280;10403;54.092;12.122;2023-10-13T12:36:33;100307.81;;;18.14
20490;BMP280;10403;54.092;12.122;2023-10-13T12:39:20;100301.53;;;18.17
20490;BMP280;10403;54.092;12.122;2023-10-13T12:42:05;100280.94;;;18.22
20490;BMP280;10403;54.092;12.122;2023-10-13T12:44:51;100306.47;;;18.23
20490;BMP280;10403;54.092;12.122;2023-10-13T12:47:36;100289.66;;;18.24
20490;BMP280;10403;54.092;12.122;2023-10-13T12:50:22;100283.78;;;18.19
20490;BMP280;10403;54.092;12.122;2023-10-13T12:53:10;100277.28;;;18.24
20490;BMP280;10403;54.092;12.122;2023-10-13T12:55:41;100277.22;;;18.26
20490;BMP280;10403;54.092;12.122;2023-10-13T12:58:08;100265.59;;;18.28
20490;BMP280;10403;54.092;12.122;2023-10-13T13:00:35;100272.44;;;18.32
20490;BMP280;10403;54.092;12.122;2023-10-13T13:03:03;100276.47;;;18.39
20490;BMP280;10403;54.092;12.122;2023-10-13T13:05:38;100263.16;;;18.41
20490;BMP280;10403;54.092;12.122;2023-10-13T13:08:12;100261.69;;;18.51
20490;BMP280;10403;54.092;12.122;2023-10-13T13:10:46;100257.81;;;18.58
20490;BMP280;10403;54.092;12.122;2023-10-13T13:13:15;100265.44;;;18.64
20490;BMP280;10403;54.092;12.122;2023-10-13T13:15:43;100270.41;;;18.70
20490;BMP280;10403;54.092;12.122;2023-10-13T13:18:11;100266.63;;;18.74
20490;BMP280;10403;54.092;12.122;2023-10-13T13:20:39;100245.28;;;18.77
20490;BMP280;10403;54.092;12.122;2023-10-13T13:23:06;100249.56;;;18.80
20490;BMP280;10403;54.092;12.122;2023-10-13T13:25:34;100241.69;;;18.78
20490;BMP280;10403;54.092;12.122;2023-10-13T13:28:09;100242.34;;;18.82
20490;BMP280;10403;54.092;12.122;2023-10-13T13:30:40;100250.13;;;18.85
20490;BMP280;10403;54.092;12.122;2023-10-13T13:33:08;100244.75;;;18.87
20490;BMP280;10403;54.092;12.122;2023-10-13T13:35:39;100233.22;;;18.88
20490;BMP280;10403;54.092;12.122;2023-10-13T13:38:10;100227.13;;;18.85
20490;BMP280;10403;54.092;12.122;2023-10-13T13:40:38;100237.47;;;18.90
20490;BMP280;10403;54.092;12.122;2023-10-13T13:43:06;100228.56;;;18.91
20490;BMP280;10403;54.092;12.122;2023-10-13T13:45:45;100219.03;;;18.89
20490;BMP280;10403;54.092;12.122;2023-10-13T13:48:12;100163.19;;;18.92
20490;BMP280;10403;54.092;12.122;2023-10-13T13:50:43;100172.75;;;18.94
20490;BMP280;10403;54.092;12.122;2023-10-13T13:53:11;100200.13;;;18.95
20490;BMP280;10403;54.092;12.122;2023-10-13T13:55:40;100209.78;;;18.96
20490;BMP280;10403;54.092;12.122;2023-10-13T13:58:08;100202.69;;;18.96
20490;BMP280;10403;54.092;12.122;2023-10-13T14:00:37;100205.25;;;18.98
20490;BMP280;10403;54.092;12.122;2023-10-13T14:03:07;100211.41;;;18.98
20490;BMP280;10403;54.092;12.122;2023-10-13T14:05:43;100185.75;;;18.99
20490;BMP280;10403;54.092;12.122;2023-10-13T14:08:10;100181.03;;;19.04
20490;BMP280;10403;54.092;12.122;2023-10-13T14:10:42;100172.06;;;19.06
20490;BMP280;10403;54.092;12.122;2023-10-13T14:13:28;100174.63;;;19.08
20490;BMP280;10403;54.092;12.122;2023-10-13T14:16:13;100177.28;;;19.08
20490;BMP280;10403;54.092;12.122;2023-10-13T14:18:46;100170.75;;;19.13
20490;BMP280;10403;54.092;12.122;2023-10-13T14:21:13;100175.03;;;19.16
20490;BMP280;10403;54.092;12.122;2023-10-13T14:23:48;100178.16;;;19.22
20490;BMP280;10403;54.092;12.122;2023-10-13T14:26:17;100164.97;;;19.21
20490;BMP280;10403;54.092;12.122;2023-10-13T14:28:48;100161.59;;;19.19
20490;BMP280;10403;54.092;12.122;2023-10-13T14:31:32;100168.41;;;19.23
20490;BMP280;10403;54.092;12.122;2023-10-13T14:33:59;100164.72;;;19.26
20490;BMP280;10403;54.092;12.122;2023-10-13T14:36:26;100155.91;;;19.25
20490;BMP280;10403;54.092;12.122;2023-10-13T14:38:56;100135.56;;;19.26
20490;BMP280;10403;54.092;12.122;2023-10-13T14:41:23;100139.81;;;19.28
20490;BMP280;10403;54.092;12.122;2023-10-13T14:43:51;100125.72;;;19.28
20490;BMP280;10403;54.092;12.122;2023-10-13T14:46:19;100115.03;;;19.29
20490;BMP280;10403;54.092;12.122;2023-10-13T14:48:54;100105.63;;;19.23